Terminal Aerodrome Forecast
Issued by NWS Grand Forks, ND

Home | Current Version | Previous Version | Graphics & Text | Print | Product List | Glossary On
Versions: 1 2 3 4 5 6 7 8 9 10 11 12 13 14 15 16 17 18 19 20 21 22 23
000
FTUS43 KFGF 251522 AAB
TAFFAR
TAF AMD
KFAR 251522Z 2515/2612 12012G18KT P6SM -TSRA BKN090CB
      TEMPO 2515/2516 VRB20G30KT 1SM TSRAGS
     FM251900 13010KT P6SM -SHRA OVC050
      TEMPO 2519/2520 TS OVC030CB
     FM252200 15010KT P6SM -TSRA BKN050CB
     FM260200 09008KT P6SM -SHRA BKN090
     FM260400 07008KT P6SM VCSH BKN150=

USA.gov is the U.S. government's official web portal to all federal, state and local government web resources and services.